Time;durP1;ratioP1;P1;durP2;ratioP2;P2;SDS_P1;SDS_P2;PMS_P1;PMS_P2;Temp;Humidity;BMP_temperature;BMP_pressure;BME280_temperature;BME280_humidity;BME280_pressure;Samples;Min_cycle;Max_cycle;Signal;HPM_P1;HPM_P2
2023/03/24 00:02:03;;;;;;;;;;;;;;;;;;5022790;28;19936;-63
2023/03/24 00:04:28;;;;;;;;;;;;;;;;;;5022361;28;19995;-67
2023/03/24 00:06:54;;;;;;;;;;;;;;;;;;5018967;28;20012;-67
2023/03/24 00:09:19;;;;;;;;;;;;;;;;;;5019043;28;20384;-63
2023/03/24 00:11:45;;;;;;;;;;;;;;;;;;5018727;28;19908;-64
2023/03/24 00:14:11;;;;;;;;;;;;;;;;;;5021288;28;19968;-61
2023/03/24 00:16:44;;;;;;;;;;;;;;;;;;5022883;28;19913;-67
2023/03/24 00:19:10;;;;;;;;;;;;;;;;;;5021202;28;19979;-66
2023/03/24 00:21:36;;;;;;;;;;;;;;;;;;5019040;28;20377;-68
2023/03/24 00:24:02;;;;;;;;;;;;;;;;;;5019925;28;19921;-67
2023/03/24 00:26:28;;;;;;;;;;;;;;;;;;5022135;28;19913;-61
2023/03/24 00:28:54;;;;;;;;;;;;;;;;;;5016856;28;19917;-62
2023/03/24 00:31:19;;;;;;;;;;;;;;;;;;5016917;28;19917;-63
2023/03/24 00:33:49;;;;;;;;;;;;;;;;;;5019155;28;19917;-64
2023/03/24 00:36:15;;;;;;;;;;;;;;;;;;5018761;28;19913;-67
2023/03/24 00:38:41;;;;;;;;;;;;;;;;;;5019182;28;19975;-63
2023/03/24 00:41:07;;;;;;;;;;;;;;;;;;5017564;28;19913;-66
2023/03/24 00:43:33;;;;;;;;;;;;;;;;;;5018186;28;20373;-65
2023/03/24 00:46:00;;;;;;;;;;;;;;;;;;5019154;28;19913;-62
2023/03/24 00:48:27;;;;;;;;;;;;;;;;;;5017288;28;19924;-66
2023/03/24 00:50:52;;;;;;;;;;;;;;;;;;5012258;28;19931;-67
2023/03/24 00:53:18;;;;;;;;;;;;;;;;;;5006015;28;19922;-67
2023/03/24 00:55:45;;;;;;;;;;;;;;;;;;5017542;28;19917;-67
2023/03/24 00:58:18;;;;;;;;;;;;;;;;;;5021502;28;20361;-66
2023/03/24 01:00:47;;;;;;;;;;;;;;;;;;5021303;28;19920;-67
2023/03/24 01:03:13;;;;;;;;;;;;;;;;;;5022124;28;19913;-66
2023/03/24 01:05:40;;;;;;;;;;;;;;;;;;5022228;28;19917;-67
2023/03/24 01:08:06;;;;;;;;;;;;;;;;;;5014918;28;20007;-67
2023/03/24 01:10:33;;;;;;;;;;;;;;;;;;5032420;28;19913;-67
2023/03/24 01:12:59;;;;;;;;;;;;;;;;;;5032162;28;19959;-66
2023/03/24 01:15:27;;;;;;;;;;;;;;;;;;5031721;28;20428;-67
2023/03/24 01:17:53;;;;;;;;;;;;;;;;;;5032332;28;19913;-67
2023/03/24 01:20:18;;;;;;;;;;;;;;;;;;5032545;28;20004;-66
2023/03/24 01:22:45;;;;;;;;;;;;;;;;;;5032444;28;20399;-67
2023/03/24 01:25:15;;;;;;;;;;;;;;;;;;5032541;28;19920;-67
2023/03/24 01:27:42;;;;;;;;;;;;;;;;;;5032609;28;19960;-67
2023/03/24 01:30:08;;;;;;;;;;;;;;;;;;5032896;28;20004;-67
2023/03/24 01:32:33;;;;;;;;;;;;;;;;;;5032011;28;19929;-65
2023/03/24 01:34:59;;;;;;;;;;;;;;;;;;5032555;28;20419;-64
2023/03/24 01:37:25;;;;;;;;;;;;;;;;;;5032637;28;19920;-66
2023/03/24 01:39:50;;;;;;;;;;;;;;;;;;5032541;28;19913;-66
2023/03/24 01:42:17;;;;;;;;;;;;;;;;;;5032570;28;20338;-67
2023/03/24 01:44:44;;;;;;;;;;;;;;;;;;5032761;28;20291;-62
2023/03/24 01:47:10;;;;;;;;;;;;;;;;;;5032493;28;19909;-62
2023/03/24 01:49:38;;;;;;;;;;;;;;;;;;5032356;28;19975;-67
2023/03/24 01:52:06;;;;;;;;;;;;;;;;;;5032674;28;19990;-62
2023/03/24 01:54:37;;;;;;;;;;;;;;;;;;5032453;28;19913;-68
2023/03/24 01:57:07;;;;;;;;;;;;;;;;;;5032382;28;20442;-68
2023/03/24 01:59:34;;;;;;;;;;;;;;;;;;5032327;28;20003;-67
2023/03/24 02:02:02;;;;;;;;;;;;;;;;;;5035010;28;20000;-67
2023/03/24 02:04:29;;;;;;;;;;;;;;;;;;5036249;28;19913;-67
2023/03/24 02:06:56;;;;;;;;;;;;;;;;;;5036288;28;19917;-65
2023/03/24 02:09:21;;;;;;;;;;;;;;;;;;5036033;28;20517;-67
2023/03/24 02:11:46;;;;;;;;;;;;;;;;;;5036018;28;19996;-67
2023/03/24 02:14:12;;;;;;;;;;;;;;;;;;5035997;28;19913;-61
2023/03/24 02:16:40;;;;;;;;;;;;;;;;;;5035927;28;20603;-61
2023/03/24 02:19:25;;;;;;;;;;;;;;;;;;5035700;28;19912;-67
2023/03/24 02:21:53;;;;;;;;;;;;;;;;;;5036044;28;19982;-61
2023/03/24 02:24:29;;;;;;;;;;;;;;;;;;5035717;28;20284;-67
2023/03/24 02:27:09;;;;;;;;;;;;;;;;;;5035638;28;20331;-61
2023/03/24 02:29:34;;;;;;;;;;;;;;;;;;5035674;28;19912;-63
2023/03/24 02:32:19;;;;;;;;;;;;;;;;;;5017786;28;19920;-68
2023/03/24 02:35:02;;;;;;;;;;;;;;;;;;5035467;28;19916;-61
2023/03/24 02:37:28;;;;;;;;;;;;;;;;;;5035465;28;19913;-67
2023/03/24 02:40:10;;;;;;;;;;;;;;;;;;5035384;28;19995;-66
2023/03/24 02:42:51;;;;;;;;;;;;;;;;;;5035241;28;19917;-65
2023/03/24 02:45:22;;;;;;;;;;;;;;;;;;5035296;28;19921;-67
2023/03/24 02:48:00;;;;;;;;;;;;;;;;;;5035263;28;19917;-66
2023/03/24 02:50:28;;;;;;;;;;;;;;;;;;5035173;28;19917;-67
2023/03/24 02:53:20;;;;;;;;;;;;;;;;;;5035242;28;19913;-67
2023/03/24 02:55:51;;;;;;;;;;;;;;;;;;5004431;28;20464;-66
2023/03/24 02:58:22;;;;;;;;;;;;;;;;;;5034973;28;19917;-67
2023/03/24 03:00:50;;;;;;;;;;;;;;;;;;5035036;28;20399;-67
2023/03/24 03:03:23;;;;;;;;;;;;;;;;;;5034872;28;20113;-67
2023/03/24 03:05:53;;;;;;;;;;;;;;;;;;5034826;28;19958;-67
2023/03/24 03:08:20;;;;;;;;;;;;;;;;;;5034800;28;20296;-67
2023/03/24 03:10:47;;;;;;;;;;;;;;;;;;5034846;28;19913;-67
2023/03/24 03:13:16;;;;;;;;;;;;;;;;;;5033852;28;19958;-66
2023/03/24 03:15:47;;;;;;;;;;;;;;;;;;5034753;28;19959;-67
2023/03/24 03:18:13;;;;;;;;;;;;;;;;;;5034691;28;19969;-66
2023/03/24 03:20:41;;;;;;;;;;;;;;;;;;5034686;28;19955;-67
2023/03/24 03:23:12;;;;;;;;;;;;;;;;;;5034583;28;19924;-64
2023/03/24 03:25:41;;;;;;;;;;;;;;;;;;5034525;28;19913;-69
2023/03/24 03:28:07;;;;;;;;;;;;;;;;;;5034383;28;19924;-66
2023/03/24 03:30:36;;;;;;;;;;;;;;;;;;5034402;28;19967;-68
2023/03/24 03:33:06;;;;;;;;;;;;;;;;;;5034301;28;19913;-68
2023/03/24 03:35:37;;;;;;;;;;;;;;;;;;5034395;28;19928;-66
2023/03/24 03:38:08;;;;;;;;;;;;;;;;;;5034249;28;19915;-67
2023/03/24 03:40:36;;;;;;;;;;;;;;;;;;5034216;28;19913;-62
2023/03/24 03:43:02;;;;;;;;;;;;;;;;;;5033972;28;20012;-66
2023/03/24 03:45:27;;;;;;;;;;;;;;;;;;5034495;28;19944;-67
2023/03/24 03:47:53;;;;;;;;;;;;;;;;;;5034011;28;19913;-67
2023/03/24 03:50:18;;;;;;;;;;;;;;;;;;5016279;28;19917;-68
2023/03/24 03:52:44;;;;;;;;;;;;;;;;;;5016281;28;19913;-67
2023/03/24 03:55:10;;;;;;;;;;;;;;;;;;5034152;28;19913;-67
2023/03/24 03:57:36;;;;;;;;;;;;;;;;;;5033903;28;19955;-67
2023/03/24 04:00:07;;;;;;;;;;;;;;;;;;5033869;28;19913;-66
2023/03/24 04:02:51;;;;;;;;;;;;;;;;;;5033870;28;19959;-67
2023/03/24 04:05:25;;;;;;;;;;;;;;;;;;5034081;28;19917;-67
2023/03/24 04:08:02;;;;;;;;;;;;;;;;;;5033740;28;19909;-67
2023/03/24 04:10:27;;;;;;;;;;;;;;;;;;5033901;28;19917;-62
2023/03/24 04:13:25;;;;;;;;;;;;;;;;;;5033511;28;20434;-67
2023/03/24 04:15:53;;;;;;;;;;;;;;;;;;4989446;28;19967;-67
2023/03/24 04:18:25;;;;;;;;;;;;;;;;;;5033792;28;19913;-67
2023/03/24 04:20:56;;;;;;;;;;;;;;;;;;5033419;28;19981;-66
2023/03/24 04:23:48;;;;;;;;;;;;;;;;;;5033337;28;19913;-63
2023/03/24 04:26:24;;;;;;;;;;;;;;;;;;5024455;28;20365;-67
2023/03/24 04:28:51;;;;;;;;;;;;;;;;;;5033351;28;20391;-67
2023/03/24 04:31:25;;;;;;;;;;;;;;;;;;5033248;28;19917;-67
2023/03/24 04:33:52;;;;;;;;;;;;;;;;;;5033474;28;20246;-68
2023/03/24 04:36:26;;;;;;;;;;;;;;;;;;5033256;28;20058;-67
2023/03/24 04:38:53;;;;;;;;;;;;;;;;;;5033241;28;20316;-62
2023/03/24 04:41:24;;;;;;;;;;;;;;;;;;5033102;28;19913;-66
2023/03/24 04:43:50;;;;;;;;;;;;;;;;;;5032978;28;20365;-66
2023/03/24 04:46:19;;;;;;;;;;;;;;;;;;5033132;28;19920;-65
2023/03/24 04:48:47;;;;;;;;;;;;;;;;;;5015325;28;20022;-67
2023/03/24 04:51:13;;;;;;;;;;;;;;;;;;5033036;28;19920;-65
2023/03/24 04:53:38;;;;;;;;;;;;;;;;;;5032848;28;19948;-67
2023/03/24 04:56:22;;;;;;;;;;;;;;;;;;5033365;28;19944;-61
2023/03/24 04:58:48;;;;;;;;;;;;;;;;;;5033224;28;19917;-65
2023/03/24 05:01:15;;;;;;;;;;;;;;;;;;5032920;28;19990;-66
2023/03/24 05:03:41;;;;;;;;;;;;;;;;;;5032852;28;19913;-66
2023/03/24 05:06:07;;;;;;;;;;;;;;;;;;5032885;28;19919;-67
2023/03/24 05:08:32;;;;;;;;;;;;;;;;;;5032840;28;19917;-66
2023/03/24 05:10:58;;;;;;;;;;;;;;;;;;5032831;28;19920;-66
2023/03/24 05:13:23;;;;;;;;;;;;;;;;;;5032785;28;19913;-67
2023/03/24 05:15:51;;;;;;;;;;;;;;;;;;5032694;28;19913;-67
2023/03/24 05:18:16;;;;;;;;;;;;;;;;;;5032724;28;19917;-62
2023/03/24 05:20:41;;;;;;;;;;;;;;;;;;5032924;28;19913;-66
2023/03/24 05:23:07;;;;;;;;;;;;;;;;;;5032618;28;19967;-67
2023/03/24 05:25:32;;;;;;;;;;;;;;;;;;5032731;28;19913;-67
2023/03/24 05:27:58;;;;;;;;;;;;;;;;;;5032682;28;19912;-63
2023/03/24 05:30:23;;;;;;;;;;;;;;;;;;5014926;28;19913;-68
2023/03/24 05:32:49;;;;;;;;;;;;;;;;;;5031700;28;19913;-67
2023/03/24 05:35:14;;;;;;;;;;;;;;;;;;5031227;28;19920;-67
2023/03/24 05:37:40;;;;;;;;;;;;;;;;;;5036004;28;19913;-67
2023/03/24 05:40:06;;;;;;;;;;;;;;;;;;5034793;28;19917;-67
2023/03/24 05:42:31;;;;;;;;;;;;;;;;;;5034213;28;19923;-67
2023/03/24 05:44:56;;;;;;;;;;;;;;;;;;5034570;28;19916;-67
2023/03/24 05:47:22;;;;;;;;;;;;;;;;;;5034323;28;19921;-67
2023/03/24 05:49:47;;;;;;;;;;;;;;;;;;5034398;28;19944;-67
2023/03/24 05:52:15;;;;;;;;;;;;;;;;;;5034525;28;20038;-67
2023/03/24 05:54:40;;;;;;;;;;;;;;;;;;5035018;28;19913;-64
2023/03/24 05:57:09;;;;;;;;;;;;;;;;;;5036368;28;20372;-67
2023/03/24 05:59:34;;;;;;;;;;;;;;;;;;5036134;28;19919;-67
2023/03/24 06:02:00;;;;;;;;;;;;;;;;;;5036023;28;19920;-68
2023/03/24 06:04:29;;;;;;;;;;;;;;;;;;5018331;28;19913;-65
2023/03/24 06:06:58;;;;;;;;;;;;;;;;;;5035993;28;19913;-67
2023/03/24 06:09:31;;;;;;;;;;;;;;;;;;5036006;28;19913;-68
2023/03/24 06:11:59;;;;;;;;;;;;;;;;;;5031758;28;19921;-67
2023/03/24 06:14:25;;;;;;;;;;;;;;;;;;5036016;28;20261;-67
2023/03/24 06:16:50;;;;;;;;;;;;;;;;;;5035825;28;19916;-66
2023/03/24 06:19:16;;;;;;;;;;;;;;;;;;5035241;28;19990;-66
2023/03/24 06:21:43;;;;;;;;;;;;;;;;;;5034402;28;20420;-67
2023/03/24 06:24:09;;;;;;;;;;;;;;;;;;5034044;28;19917;-66
2023/03/24 06:26:35;;;;;;;;;;;;;;;;;;5034372;28;19913;-67
2023/03/24 06:29:00;;;;;;;;;;;;;;;;;;5034884;28;19913;-66
2023/03/24 06:31:28;;;;;;;;;;;;;;;;;;5035114;28;19917;-66
2023/03/24 06:33:54;;;;;;;;;;;;;;;;;;5035061;28;19913;-67
2023/03/24 06:36:19;;;;;;;;;;;;;;;;;;5035330;28;19959;-64
2023/03/24 06:38:45;;;;;;;;;;;;;;;;;;5035399;28;20203;-66
2023/03/24 06:41:10;;;;;;;;;;;;;;;;;;5035557;28;19919;-63
2023/03/24 06:43:37;;;;;;;;;;;;;;;;;;5035268;28;20344;-68
2023/03/24 06:46:02;;;;;;;;;;;;;;;;;;5035078;28;19913;-67
2023/03/24 06:48:28;;;;;;;;;;;;;;;;;;5033946;28;19966;-66
2023/03/24 06:50:54;;;;;;;;;;;;;;;;;;5035126;28;19946;-67
2023/03/24 06:53:22;;;;;;;;;;;;;;;;;;5035397;28;19913;-69
2023/03/24 06:55:48;;;;;;;;;;;;;;;;;;5035083;28;19913;-64
2023/03/24 06:58:14;;;;;;;;;;;;;;;;;;5034969;28;19916;-68
2023/03/24 07:00:40;;;;;;;;;;;;;;;;;;5034937;28;19913;-68
2023/03/24 07:03:06;;;;;;;;;;;;;;;;;;5034862;28;19919;-67
2023/03/24 07:05:32;;;;;;;;;;;;;;;;;;5034785;28;19963;-67
2023/03/24 07:07:58;;;;;;;;;;;;;;;;;;5034808;28;19913;-66
2023/03/24 07:10:23;;;;;;;;;;;;;;;;;;5034714;28;19996;-68
2023/03/24 07:12:49;;;;;;;;;;;;;;;;;;5034610;28;20032;-68
2023/03/24 07:15:15;;;;;;;;;;;;;;;;;;5034954;28;19920;-68
2023/03/24 07:17:41;;;;;;;;;;;;;;;;;;5034675;28;20368;-68
2023/03/24 07:20:07;;;;;;;;;;;;;;;;;;5034849;28;19975;-65
2023/03/24 07:22:35;;;;;;;;;;;;;;;;;;5034528;28;19920;-68
2023/03/24 07:25:03;;;;;;;;;;;;;;;;;;5034538;28;19909;-69
2023/03/24 07:27:29;;;;;;;;;;;;;;;;;;5034441;28;19913;-64
2023/03/24 07:29:54;;;;;;;;;;;;;;;;;;5034854;28;19909;-66
2023/03/24 07:32:20;;;;;;;;;;;;;;;;;;5034019;28;19913;-68
2023/03/24 07:34:47;;;;;;;;;;;;;;;;;;5034277;28;19920;-68
2023/03/24 07:37:12;;;;;;;;;;;;;;;;;;5034521;28;19913;-67
2023/03/24 07:39:37;;;;;;;;;;;;;;;;;;5034235;28;20283;-67
2023/03/24 07:42:03;;;;;;;;;;;;;;;;;;5033705;28;20357;-66
2023/03/24 07:44:28;;;;;;;;;;;;;;;;;;5033832;28;19963;-63
2023/03/24 07:46:54;;;;;;;;;;;;;;;;;;5014781;28;20040;-69
2023/03/24 07:49:19;;;;;;;;;;;;;;;;;;4996688;28;19914;-68
2023/03/24 07:51:45;;;;;;;;;;;;;;;;;;5014160;28;19946;-65
2023/03/24 07:54:10;;;;;;;;;;;;;;;;;;5014086;28;20011;-67
2023/03/24 07:56:35;;;;;;;;;;;;;;;;;;5014111;28;19918;-68
2023/03/24 07:59:01;;;;;;;;;;;;;;;;;;5013798;28;19913;-67
2023/03/24 08:01:26;;;;;;;;;;;;;;;;;;5014125;28;19917;-66
2023/03/24 08:03:54;;;;;;;;;;;;;;;;;;5013540;28;20064;-62
2023/03/24 08:06:20;;;;;;;;;;;;;;;;;;4996232;28;19914;-66
2023/03/24 08:08:45;;;;;;;;;;;;;;;;;;5013769;28;19924;-66
2023/03/24 08:11:11;;;;;;;;;;;;;;;;;;5013720;28;19925;-66
2023/03/24 08:13:36;;;;;;;;;;;;;;;;;;5010728;28;20254;-67
2023/03/24 08:16:03;;;;;;;;;;;;;;;;;;5014700;28;19975;-64
2023/03/24 08:18:30;;;;;;;;;;;;;;;;;;5017541;28;19920;-64
2023/03/24 08:20:57;;;;;;;;;;;;;;;;;;5015568;28;20012;-64
2023/03/24 08:23:23;;;;;;;;;;;;;;;;;;5015934;28;19929;-63
2023/03/24 08:25:48;;;;;;;;;;;;;;;;;;5016286;28;19920;-65
2023/03/24 08:28:15;;;;;;;;;;;;;;;;;;5018749;28;19920;-64
2023/03/24 08:30:42;;;;;;;;;;;;;;;;;;5019492;28;19909;-64
2023/03/24 08:33:12;;;;;;;;;;;;;;;;;;5019278;28;19956;-65
2023/03/24 08:35:38;;;;;;;;;;;;;;;;;;5016664;28;20455;-66
2023/03/24 08:38:04;;;;;;;;;;;;;;;;;;5018863;28;19992;-67
2023/03/24 08:40:30;;;;;;;;;;;;;;;;;;5018416;28;19960;-67
2023/03/24 08:43:00;;;;;;;;;;;;;;;;;;5013999;28;19990;-62
2023/03/24 08:45:27;;;;;;;;;;;;;;;;;;4999447;28;19933;-66
2023/03/24 08:47:52;;;;;;;;;;;;;;;;;;4997127;28;20328;-66
2023/03/24 08:50:20;;;;;;;;;;;;;;;;;;5017034;28;19917;-66
2023/03/24 08:52:48;;;;;;;;;;;;;;;;;;5017494;28;19921;-63
2023/03/24 08:55:15;;;;;;;;;;;;;;;;;;5016444;28;19920;-63
2023/03/24 08:57:40;;;;;;;;;;;;;;;;;;5016685;28;19990;-63
2023/03/24 09:00:13;;;;;;;;;;;;;;;;;;5015155;28;19970;-63
2023/03/24 09:02:39;;;;;;;;;;;;;;;;;;5016524;28;19920;-66
2023/03/24 09:05:04;;;;;;;;;;;;;;;;;;5017085;28;19921;-65
2023/03/24 09:07:30;;;;;;;;;;;;;;;;;;5017546;28;19913;-63
2023/03/24 09:09:56;;;;;;;;;;;;;;;;;;5016652;28;19924;-64
2023/03/24 09:12:21;;;;;;;;;;;;;;;;;;4997385;28;19963;-66
2023/03/24 09:14:47;;;;;;;;;;;;;;;;;;5004769;28;19952;-63
2023/03/24 09:17:13;;;;;;;;;;;;;;;;;;5017857;28;19924;-64
2023/03/24 09:19:38;;;;;;;;;;;;;;;;;;5018164;28;19913;-63
2023/03/24 09:22:04;;;;;;;;;;;;;;;;;;5019082;28;19939;-64
2023/03/24 09:24:30;;;;;;;;;;;;;;;;;;5014563;28;19972;-63
2023/03/24 09:26:55;;;;;;;;;;;;;;;;;;5012954;28;19960;-65
2023/03/24 09:29:21;;;;;;;;;;;;;;;;;;5012835;28;19913;-63
2023/03/24 09:31:46;;;;;;;;;;;;;;;;;;5016029;28;19917;-65
2023/03/24 09:34:12;;;;;;;;;;;;;;;;;;5016435;28;19921;-66
2023/03/24 09:36:37;;;;;;;;;;;;;;;;;;5012808;28;19937;-66
2023/03/24 09:39:03;;;;;;;;;;;;;;;;;;5011594;28;20281;-66
2023/03/24 09:41:29;;;;;;;;;;;;;;;;;;5012785;28;19963;-67
2023/03/24 09:43:55;;;;;;;;;;;;;;;;;;5011851;28;19929;-67
2023/03/24 09:46:41;;;;;;;;;;;;;;;;;;5012709;28;19913;-64
2023/03/24 09:49:11;;;;;;;;;;;;;;;;;;5011699;28;20703;-68
2023/03/24 09:51:43;;;;;;;;;;;;;;;;;;4994312;28;20377;-63
2023/03/24 09:54:13;;;;;;;;;;;;;;;;;;4993071;28;19917;-67
2023/03/24 09:56:40;;;;;;;;;;;;;;;;;;5012236;28;19914;-63
2023/03/24 09:59:18;;;;;;;;;;;;;;;;;;5012001;28;19915;-67
2023/03/24 10:01:44;;;;;;;;;;;;;;;;;;5012245;28;20369;-63
2023/03/24 10:04:17;;;;;;;;;;;;;;;;;;5012097;28;19909;-65
2023/03/24 10:06:43;;;;;;;;;;;;;;;;;;5012366;28;19953;-67
2023/03/24 10:09:08;;;;;;;;;;;;;;;;;;5012433;28;19940;-67
2023/03/24 10:11:36;;;;;;;;;;;;;;;;;;5011919;28;19924;-67
2023/03/24 10:14:11;;;;;;;;;;;;;;;;;;5012397;28;19913;-65
2023/03/24 10:16:44;;;;;;;;;;;;;;;;;;5012462;28;19955;-64
2023/03/24 10:19:19;;;;;;;;;;;;;;;;;;5012389;28;19913;-67
2023/03/24 10:21:51;;;;;;;;;;;;;;;;;;5013280;28;19914;-63
2023/03/24 10:24:37;;;;;;;;;;;;;;;;;;5015984;28;19955;-64
2023/03/24 10:27:09;;;;;;;;;;;;;;;;;;5015769;28;19920;-64
2023/03/24 10:29:35;;;;;;;;;;;;;;;;;;5015276;28;20389;-64
2023/03/24 10:32:05;;;;;;;;;;;;;;;;;;5015912;28;20354;-66
2023/03/24 10:34:31;;;;;;;;;;;;;;;;;;5015188;28;19959;-64
2023/03/24 10:36:58;;;;;;;;;;;;;;;;;;5014941;28;19917;-66
2023/03/24 10:39:23;;;;;;;;;;;;;;;;;;5015486;28;19920;-63
2023/03/24 10:41:50;;;;;;;;;;;;;;;;;;5015550;28;19914;-66
2023/03/24 10:44:16;;;;;;;;;;;;;;;;;;5015174;28;19917;-64
2023/03/24 10:46:47;;;;;;;;;;;;;;;;;;5015446;28;19917;-66
2023/03/24 10:49:13;;;;;;;;;;;;;;;;;;5015388;28;19917;-64
2023/03/24 10:51:43;;;;;;;;;;;;;;;;;;4997747;28;19939;-67
2023/03/24 10:54:18;;;;;;;;;;;;;;;;;;5015201;28;20387;-66
2023/03/24 10:56:45;;;;;;;;;;;;;;;;;;5015562;28;19913;-68
2023/03/24 10:59:20;;;;;;;;;;;;;;;;;;5015212;28;20396;-64
2023/03/24 11:01:46;;;;;;;;;;;;;;;;;;5015177;28;19967;-65
2023/03/24 11:04:15;;;;;;;;;;;;;;;;;;4981400;28;19921;-66
2023/03/24 11:06:56;;;;;;;;;;;;;;;;;;4998120;28;20015;-64
2023/03/24 11:09:22;;;;;;;;;;;;;;;;;;4997471;28;20257;-63
2023/03/24 11:11:49;;;;;;;;;;;;;;;;;;5015001;28;19921;-64
2023/03/24 11:14:25;;;;;;;;;;;;;;;;;;5014781;28;20396;-64
2023/03/24 11:16:52;;;;;;;;;;;;;;;;;;5015090;28;19919;-64
2023/03/24 11:19:22;;;;;;;;;;;;;;;;;;5014772;28;19992;-64
2023/03/24 11:21:48;;;;;;;;;;;;;;;;;;5014979;28;19937;-66
2023/03/24 11:24:15;;;;;;;;;;;;;;;;;;5014780;28;20000;-64
2023/03/24 11:26:45;;;;;;;;;;;;;;;;;;5014607;28;19920;-64
2023/03/24 11:29:13;;;;;;;;;;;;;;;;;;4997036;28;19936;-63
2023/03/24 11:31:39;;;;;;;;;;;;;;;;;;5014371;28;19910;-65
2023/03/24 11:34:18;;;;;;;;;;;;;;;;;;5013630;28;20017;-67
2023/03/24 11:36:56;;;;;;;;;;;;;;;;;;5014687;28;19914;-64
2023/03/24 11:39:21;;;;;;;;;;;;;;;;;;5012801;28;19965;-64
2023/03/24 11:42:09;;;;;;;;;;;;;;;;;;5014074;28;19925;-67
2023/03/24 11:44:38;;;;;;;;;;;;;;;;;;5013418;28;19928;-67
2023/03/24 11:47:12;;;;;;;;;;;;;;;;;;5014303;28;19913;-68
2023/03/24 11:49:41;;;;;;;;;;;;;;;;;;4996565;28;19920;-64
2023/03/24 11:52:20;;;;;;;;;;;;;;;;;;5014110;28;19920;-65
2023/03/24 11:54:46;;;;;;;;;;;;;;;;;;5014010;28;20010;-64
2023/03/24 11:57:12;;;;;;;;;;;;;;;;;;5014044;28;19953;-64
2023/03/24 11:59:56;;;;;;;;;;;;;;;;;;4996475;28;19913;-66
2023/03/24 12:02:25;;;;;;;;;;;;;;;;;;5014153;28;19936;-65
2023/03/24 12:05:09;;;;;;;;;;;;;;;;;;5012981;28;19920;-64
2023/03/24 12:07:53;;;;;;;;;;;;;;;;;;5016677;28;19921;-68
2023/03/24 12:10:23;;;;;;;;;;;;;;;;;;4994170;28;19919;-69
2023/03/24 12:12:57;;;;;;;;;;;;;;;;;;5013096;28;19913;-66
2023/03/24 12:15:38;;;;;;;;;;;;;;;;;;5013020;28;19921;-66
2023/03/24 12:18:12;;;;;;;;;;;;;;;;;;5013664;28;19916;-67
2023/03/24 12:20:53;;;;;;;;;;;;;;;;;;5011275;28;19914;-65
2023/03/24 12:23:25;;;;;;;;;;;;;;;;;;4994131;28;19910;-66
2023/03/24 12:26:17;;;;;;;;;;;;;;;;;;4994135;28;19914;-63
2023/03/24 12:28:51;;;;;;;;;;;;;;;;;;4992784;28;19916;-66
2023/03/24 12:31:27;;;;;;;;;;;;;;;;;;5001422;28;19921;-68
2023/03/24 12:34:11;;;;;;;;;;;;;;;;;;5013330;28;19920;-67
2023/03/24 12:36:40;;;;;;;;;;;;;;;;;;5013316;28;19925;-67
2023/03/24 12:39:11;;;;;;;;;;;;;;;;;;5013197;28;19920;-68
2023/03/24 12:41:50;;;;;;;;;;;;;;;;;;5018256;28;20367;-67
2023/03/24 12:44:34;;;;;;;;;;;;;;;;;;5032872;28;19920;-68
2023/03/24 12:47:15;;;;;;;;;;;;;;;;;;5032542;28;19913;-68
2023/03/24 12:49:47;;;;;;;;;;;;;;;;;;5029203;28;19912;-66
2023/03/24 12:52:16;;;;;;;;;;;;;;;;;;4992625;28;19914;-65
2023/03/24 12:54:46;;;;;;;;;;;;;;;;;;4993281;28;20280;-66
2023/03/24 12:57:14;;;;;;;;;;;;;;;;;;4993187;28;20353;-65
2023/03/24 12:59:50;;;;;;;;;;;;;;;;;;4992145;28;19945;-66
2023/03/24 13:02:19;;;;;;;;;;;;;;;;;;4990921;28;20360;-66
2023/03/24 13:04:45;;;;;;;;;;;;;;;;;;4993652;28;19936;-66
2023/03/24 13:07:13;;;;;;;;;;;;;;;;;;4993460;28;20285;-66
2023/03/24 13:09:48;;;;;;;;;;;;;;;;;;4976023;28;19924;-65
2023/03/24 13:12:23;;;;;;;;;;;;;;;;;;4993265;28;19914;-66
2023/03/24 13:15:07;;;;;;;;;;;;;;;;;;4993515;28;20384;-66
2023/03/24 13:17:38;;;;;;;;;;;;;;;;;;4993224;28;19913;-66
2023/03/24 13:20:05;;;;;;;;;;;;;;;;;;4992195;28;19922;-66
2023/03/24 13:22:32;;;;;;;;;;;;;;;;;;4993377;28;20366;-66
2023/03/24 13:24:59;;;;;;;;;;;;;;;;;;4993273;28;19914;-65
2023/03/24 13:27:31;;;;;;;;;;;;;;;;;;5018265;28;20004;-64
2023/03/24 13:30:04;;;;;;;;;;;;;;;;;;5032701;28;19917;-65
2023/03/24 13:32:33;;;;;;;;;;;;;;;;;;5032438;28;19913;-66
2023/03/24 13:35:25;;;;;;;;;;;;;;;;;;5032357;28;19913;-66
2023/03/24 13:37:52;;;;;;;;;;;;;;;;;;4977287;28;19912;-67
2023/03/24 13:40:22;;;;;;;;;;;;;;;;;;5030641;28;19913;-65
2023/03/24 13:42:52;;;;;;;;;;;;;;;;;;5016230;28;19926;-69
2023/03/24 13:45:22;;;;;;;;;;;;;;;;;;5011632;28;20291;-67
2023/03/24 13:47:48;;;;;;;;;;;;;;;;;;5026767;28;19979;-65
2023/03/24 13:50:14;;;;;;;;;;;;;;;;;;5014350;28;19913;-65
2023/03/24 13:52:44;;;;;;;;;;;;;;;;;;5012645;28;19920;-67
2023/03/24 13:55:14;;;;;;;;;;;;;;;;;;4993633;28;19920;-68
2023/03/24 13:57:41;;;;;;;;;;;;;;;;;;5014593;28;19920;-66
2023/03/24 14:00:13;;;;;;;;;;;;;;;;;;5015954;28;20258;-66
2023/03/24 14:02:48;;;;;;;;;;;;;;;;;;5014668;28;19949;-66
2023/03/24 14:05:32;;;;;;;;;;;;;;;;;;5002316;28;19919;-66
2023/03/24 14:07:57;;;;;;;;;;;;;;;;;;5021549;28;20370;-66
2023/03/24 14:10:22;;;;;;;;;;;;;;;;;;5022842;28;19917;-66
2023/03/24 14:12:51;;;;;;;;;;;;;;;;;;5032875;28;20015;-65
2023/03/24 14:15:18;;;;;;;;;;;;;;;;;;5019231;28;20405;-66
2023/03/24 14:17:44;;;;;;;;;;;;;;;;;;5014714;28;19977;-66
2023/03/24 14:20:12;;;;;;;;;;;;;;;;;;5029428;28;19927;-65
2023/03/24 14:22:46;;;;;;;;;;;;;;;;;;5034210;28;20408;-67
2023/03/24 14:25:15;;;;;;;;;;;;;;;;;;5033996;28;19963;-66
2023/03/24 14:27:44;;;;;;;;;;;;;;;;;;5034199;28;20564;-66
2023/03/24 14:30:10;;;;;;;;;;;;;;;;;;5033956;28;19917;-67
2023/03/24 14:32:48;;;;;;;;;;;;;;;;;;5033886;28;20380;-67
2023/03/24 14:35:23;;;;;;;;;;;;;;;;;;5033978;28;20404;-67
2023/03/24 14:37:51;;;;;;;;;;;;;;;;;;5033031;28;19959;-67
2023/03/24 14:40:28;;;;;;;;;;;;;;;;;;5033512;28;20437;-68
2023/03/24 14:42:55;;;;;;;;;;;;;;;;;;5032058;28;19918;-67
2023/03/24 14:45:51;;;;;;;;;;;;;;;;;;5015110;28;20012;-67
2023/03/24 14:48:22;;;;;;;;;;;;;;;;;;5009389;28;20016;-66
2023/03/24 14:50:48;;;;;;;;;;;;;;;;;;5013690;28;19925;-66
2023/03/24 14:53:17;;;;;;;;;;;;;;;;;;5013360;28;19917;-66
2023/03/24 14:55:42;;;;;;;;;;;;;;;;;;5027888;28;19920;-67
2023/03/24 14:58:14;;;;;;;;;;;;;;;;;;5033595;28;19917;-66
2023/03/24 15:00:43;;;;;;;;;;;;;;;;;;5033577;28;19921;-66
2023/03/24 15:03:22;;;;;;;;;;;;;;;;;;5033396;28;19917;-66
2023/03/24 15:05:48;;;;;;;;;;;;;;;;;;5033673;28;19967;-65
2023/03/24 15:08:17;;;;;;;;;;;;;;;;;;5032375;28;19958;-66
2023/03/24 15:10:48;;;;;;;;;;;;;;;;;;5033176;28;19985;-66
2023/03/24 15:13:26;;;;;;;;;;;;;;;;;;5033350;28;20007;-66
2023/03/24 15:15:51;;;;;;;;;;;;;;;;;;5012596;28;20010;-65
2023/03/24 15:18:17;;;;;;;;;;;;;;;;;;5013380;28;20000;-64
2023/03/24 15:20:44;;;;;;;;;;;;;;;;;;5013404;28;20296;-65
2023/03/24 15:23:15;;;;;;;;;;;;;;;;;;5011940;28;19940;-65
2023/03/24 15:25:41;;;;;;;;;;;;;;;;;;5013313;28;19917;-65
2023/03/24 15:28:11;;;;;;;;;;;;;;;;;;5013290;28;19921;-66
2023/03/24 15:30:37;;;;;;;;;;;;;;;;;;5013530;28;20000;-65
2023/03/24 15:33:02;;;;;;;;;;;;;;;;;;5013294;28;20019;-65
2023/03/24 15:35:32;;;;;;;;;;;;;;;;;;5013821;28;19927;-65
2023/03/24 15:37:58;;;;;;;;;;;;;;;;;;5012363;28;19920;-65
2023/03/24 15:40:26;;;;;;;;;;;;;;;;;;5012051;28;19917;-64
2023/03/24 15:42:56;;;;;;;;;;;;;;;;;;5012505;28;19925;-64
2023/03/24 15:45:24;;;;;;;;;;;;;;;;;;5011583;28;20499;-64
2023/03/24 15:47:50;;;;;;;;;;;;;;;;;;5010961;28;19996;-65
2023/03/24 15:50:36;;;;;;;;;;;;;;;;;;5010947;28;19917;-64
2023/03/24 15:53:03;;;;;;;;;;;;;;;;;;5011839;28;19913;-64
2023/03/24 15:55:31;;;;;;;;;;;;;;;;;;4994883;28;19917;-65
2023/03/24 15:57:58;;;;;;;;;;;;;;;;;;4995157;28;19921;-66
2023/03/24 16:00:24;;;;;;;;;;;;;;;;;;4994837;28;19924;-65
2023/03/24 16:02:54;;;;;;;;;;;;;;;;;;5012598;28;19924;-64
2023/03/24 16:05:24;;;;;;;;;;;;;;;;;;5012430;28;19960;-64
2023/03/24 16:08:02;;;;;;;;;;;;;;;;;;5012718;28;19952;-65
2023/03/24 16:10:39;;;;;;;;;;;;;;;;;;5012333;28;19971;-65
2023/03/24 16:13:12;;;;;;;;;;;;;;;;;;5012367;28;19913;-64
2023/03/24 16:15:39;;;;;;;;;;;;;;;;;;5012250;28;19967;-64
2023/03/24 16:18:05;;;;;;;;;;;;;;;;;;5012327;28;19910;-64
2023/03/24 16:20:30;;;;;;;;;;;;;;;;;;5011935;28;19917;-64
2023/03/24 16:22:56;;;;;;;;;;;;;;;;;;4994489;28;19909;-65
2023/03/24 16:25:22;;;;;;;;;;;;;;;;;;5012205;28;19919;-65
2023/03/24 16:27:47;;;;;;;;;;;;;;;;;;5012134;28;20391;-64
2023/03/24 16:30:23;;;;;;;;;;;;;;;;;;5012139;28;19910;-64
2023/03/24 16:32:49;;;;;;;;;;;;;;;;;;5012015;28;19932;-64
2023/03/24 16:35:14;;;;;;;;;;;;;;;;;;4994331;28;19920;-65
2023/03/24 16:37:41;;;;;;;;;;;;;;;;;;5011874;28;20432;-64
2023/03/24 16:40:25;;;;;;;;;;;;;;;;;;5012028;28;19913;-64
2023/03/24 16:42:50;;;;;;;;;;;;;;;;;;5011638;28;19918;-64
2023/03/24 16:45:16;;;;;;;;;;;;;;;;;;5012004;28;19924;-65
2023/03/24 16:47:42;;;;;;;;;;;;;;;;;;5011912;28;19913;-65
2023/03/24 16:50:20;;;;;;;;;;;;;;;;;;5011665;28;19972;-64
2023/03/24 16:52:46;;;;;;;;;;;;;;;;;;5011807;28;19956;-64
2023/03/24 16:55:11;;;;;;;;;;;;;;;;;;5011593;28;19952;-64
2023/03/24 16:57:37;;;;;;;;;;;;;;;;;;4994011;28;19917;-64
2023/03/24 17:00:09;;;;;;;;;;;;;;;;;;5011879;28;19917;-64